sensor_id;sensor_type;location;lat;lon;timestamp;P1;durP1;ratioP1;P2;durP2;ratioP2
66353;SDS011;53150;48.296;16.452;2022-08-19T00:00:12;7.78;;;4.28;;
66353;SDS011;53150;48.296;16.452;2022-08-19T00:02:39;9.05;;;4.00;;
66353;SDS011;53150;48.296;16.452;2022-08-19T00:05:06;7.55;;;3.85;;
66353;SDS011;53150;48.296;16.452;2022-08-19T00:07:33;8.50;;;4.50;;
66353;SDS011;53150;48.296;16.452;2022-08-19T00:09:59;9.13;;;5.35;;
66353;SDS011;53150;48.296;16.452;2022-08-19T00:12:25;8.93;;;4.20;;
66353;SDS011;53150;48.296;16.452;2022-08-19T00:14:51;9.18;;;4.00;;
66353;SDS011;53150;48.296;16.452;2022-08-19T00:17:19;8.57;;;4.05;;
66353;SDS011;53150;48.296;16.452;2022-08-19T00:19:45;8.65;;;4.50;;
66353;SDS011;53150;48.296;16.452;2022-08-19T00:22:11;10.07;;;4.40;;
66353;SDS011;53150;48.296;16.452;2022-08-19T00:24:37;8.50;;;4.35;;
66353;SDS011;53150;48.296;16.452;2022-08-19T00:27:03;10.13;;;4.28;;
66353;SDS011;53150;48.296;16.452;2022-08-19T00:29:30;9.93;;;4.10;;
66353;SDS011;53150;48.296;16.452;2022-08-19T00:31:56;9.15;;;3.80;;
66353;SDS011;53150;48.296;16.452;2022-08-19T00:34:23;7.47;;;3.50;;
66353;SDS011;53150;48.296;16.452;2022-08-19T00:36:51;7.95;;;4.70;;
66353;SDS011;53150;48.296;16.452;2022-08-19T00:39:17;8.75;;;4.47;;
66353;SDS011;53150;48.296;16.452;2022-08-19T00:41:43;8.65;;;4.40;;
66353;SDS011;53150;48.296;16.452;2022-08-19T00:44:13;8.15;;;4.10;;
66353;SDS011;53150;48.296;16.452;2022-08-19T00:46:41;8.40;;;3.90;;
66353;SDS011;53150;48.296;16.452;2022-08-19T00:49:27;11.82;;;4.30;;
66353;SDS011;53150;48.296;16.452;2022-08-19T00:51:55;6.65;;;4.00;;
66353;SDS011;53150;48.296;16.452;2022-08-19T00:54:23;9.05;;;4.15;;
66353;SDS011;53150;48.296;16.452;2022-08-19T00:56:49;7.57;;;3.78;;
66353;SDS011;53150;48.296;16.452;2022-08-19T00:59:16;11.32;;;4.85;;
66353;SDS011;53150;48.296;16.452;2022-08-19T01:01:43;8.43;;;4.78;;
66353;SDS011;53150;48.296;16.452;2022-08-19T01:04:09;8.50;;;4.30;;
66353;SDS011;53150;48.296;16.452;2022-08-19T01:06:36;9.63;;;4.18;;
66353;SDS011;53150;48.296;16.452;2022-08-19T01:09:02;8.38;;;3.90;;
66353;SDS011;53150;48.296;16.452;2022-08-19T01:11:30;10.70;;;4.40;;
66353;SDS011;53150;48.296;16.452;2022-08-19T01:13:56;7.47;;;3.63;;
66353;SDS011;53150;48.296;16.452;2022-08-19T01:16:24;6.45;;;3.83;;
66353;SDS011;53150;48.296;16.452;2022-08-19T01:18:50;8.63;;;4.53;;
66353;SDS011;53150;48.296;16.452;2022-08-19T01:21:34;7.72;;;3.80;;
66353;SDS011;53150;48.296;16.452;2022-08-19T01:24:01;10.13;;;4.00;;
66353;SDS011;53150;48.296;16.452;2022-08-19T01:26:27;6.88;;;4.22;;
66353;SDS011;53150;48.296;16.452;2022-08-19T01:28:54;8.45;;;4.20;;
66353;SDS011;53150;48.296;16.452;2022-08-19T01:31:25;7.60;;;4.15;;
66353;SDS011;53150;48.296;16.452;2022-08-19T01:33:52;11.32;;;4.35;;
66353;SDS011;53150;48.296;16.452;2022-08-19T01:36:23;7.45;;;3.92;;
66353;SDS011;53150;48.296;16.452;2022-08-19T01:38:51;7.95;;;5.03;;
66353;SDS011;53150;48.296;16.452;2022-08-19T01:41:17;8.15;;;4.10;;
66353;SDS011;53150;48.296;16.452;2022-08-19T01:43:44;8.27;;;3.58;;
66353;SDS011;53150;48.296;16.452;2022-08-19T01:46:10;10.63;;;4.22;;
66353;SDS011;53150;48.296;16.452;2022-08-19T01:48:38;10.30;;;4.07;;
66353;SDS011;53150;48.296;16.452;2022-08-19T01:51:04;7.80;;;4.13;;
66353;SDS011;53150;48.296;16.452;2022-08-19T01:53:30;8.55;;;4.40;;
66353;SDS011;53150;48.296;16.452;2022-08-19T01:55:57;6.70;;;4.10;;
66353;SDS011;53150;48.296;16.452;2022-08-19T01:58:25;6.35;;;4.00;;
66353;SDS011;53150;48.296;16.452;2022-08-19T02:00:54;9.88;;;4.65;;
66353;SDS011;53150;48.296;16.452;2022-08-19T02:03:20;7.13;;;4.07;;
66353;SDS011;53150;48.296;16.452;2022-08-19T02:05:46;9.02;;;4.13;;
66353;SDS011;53150;48.296;16.452;2022-08-19T02:08:12;7.38;;;3.70;;
66353;SDS011;53150;48.296;16.452;2022-08-19T02:10:39;7.78;;;3.45;;
66353;SDS011;53150;48.296;16.452;2022-08-19T02:13:06;7.90;;;3.88;;
66353;SDS011;53150;48.296;16.452;2022-08-19T02:15:32;9.63;;;4.22;;
66353;SDS011;53150;48.296;16.452;2022-08-19T02:17:58;8.15;;;4.40;;
66353;SDS011;53150;48.296;16.452;2022-08-19T02:20:24;10.52;;;4.78;;
66353;SDS011;53150;48.296;16.452;2022-08-19T02:22:50;11.80;;;4.85;;
66353;SDS011;53150;48.296;16.452;2022-08-19T02:25:16;8.00;;;3.83;;
66353;SDS011;53150;48.296;16.452;2022-08-19T02:27:42;9.65;;;3.42;;
66353;SDS011;53150;48.296;16.452;2022-08-19T02:30:10;7.88;;;3.53;;
66353;SDS011;53150;48.296;16.452;2022-08-19T02:32:36;8.32;;;3.53;;
66353;SDS011;53150;48.296;16.452;2022-08-19T02:35:02;8.60;;;4.10;;
66353;SDS011;53150;48.296;16.452;2022-08-19T02:37:28;7.55;;;3.80;;
66353;SDS011;53150;48.296;16.452;2022-08-19T02:40:13;8.82;;;3.95;;
66353;SDS011;53150;48.296;16.452;2022-08-19T02:42:40;9.13;;;3.90;;
66353;SDS011;53150;48.296;16.452;2022-08-19T02:45:07;9.02;;;4.60;;
66353;SDS011;53150;48.296;16.452;2022-08-19T02:47:36;10.18;;;4.47;;
66353;SDS011;53150;48.296;16.452;2022-08-19T02:50:02;10.38;;;4.68;;
66353;SDS011;53150;48.296;16.452;2022-08-19T02:52:29;9.10;;;5.05;;
66353;SDS011;53150;48.296;16.452;2022-08-19T02:54:55;9.07;;;5.55;;
66353;SDS011;53150;48.296;16.452;2022-08-19T02:57:22;10.07;;;5.82;;
66353;SDS011;53150;48.296;16.452;2022-08-19T02:59:48;7.63;;;5.18;;
66353;SDS011;53150;48.296;16.452;2022-08-19T03:02:14;10.77;;;5.05;;
66353;SDS011;53150;48.296;16.452;2022-08-19T03:04:40;8.02;;;4.55;;
66353;SDS011;53150;48.296;16.452;2022-08-19T03:07:07;11.98;;;5.35;;
66353;SDS011;53150;48.296;16.452;2022-08-19T03:09:33;10.60;;;6.03;;
66353;SDS011;53150;48.296;16.452;2022-08-19T03:12:02;10.07;;;5.68;;
66353;SDS011;53150;48.296;16.452;2022-08-19T03:14:30;8.98;;;5.28;;
66353;SDS011;53150;48.296;16.452;2022-08-19T03:16:55;9.57;;;5.40;;
66353;SDS011;53150;48.296;16.452;2022-08-19T03:19:22;8.15;;;5.60;;
66353;SDS011;53150;48.296;16.452;2022-08-19T03:21:48;8.18;;;5.85;;
66353;SDS011;53150;48.296;16.452;2022-08-19T03:24:15;10.48;;;6.03;;
66353;SDS011;53150;48.296;16.452;2022-08-19T03:26:42;10.13;;;5.95;;
66353;SDS011;53150;48.296;16.452;2022-08-19T03:29:08;9.35;;;5.97;;
66353;SDS011;53150;48.296;16.452;2022-08-19T03:31:36;10.57;;;5.80;;
66353;SDS011;53150;48.296;16.452;2022-08-19T03:34:03;8.25;;;5.80;;
66353;SDS011;53150;48.296;16.452;2022-08-19T03:36:29;9.10;;;5.82;;
66353;SDS011;53150;48.296;16.452;2022-08-19T03:38:56;10.07;;;6.78;;
66353;SDS011;53150;48.296;16.452;2022-08-19T03:41:24;9.98;;;6.57;;
66353;SDS011;53150;48.296;16.452;2022-08-19T03:43:50;8.95;;;6.00;;
66353;SDS011;53150;48.296;16.452;2022-08-19T03:46:18;9.90;;;6.22;;
66353;SDS011;53150;48.296;16.452;2022-08-19T03:48:48;11.70;;;6.43;;
66353;SDS011;53150;48.296;16.452;2022-08-19T03:51:20;10.93;;;6.30;;
66353;SDS011;53150;48.296;16.452;2022-08-19T03:53:46;9.23;;;6.05;;
66353;SDS011;53150;48.296;16.452;2022-08-19T03:56:13;8.48;;;6.10;;
66353;SDS011;53150;48.296;16.452;2022-08-19T03:58:40;11.20;;;6.07;;
66353;SDS011;53150;48.296;16.452;2022-08-19T04:01:10;8.82;;;5.78;;
66353;SDS011;53150;48.296;16.452;2022-08-19T04:03:37;11.48;;;6.18;;
66353;SDS011;53150;48.296;16.452;2022-08-19T04:06:10;9.85;;;5.75;;
66353;SDS011;53150;48.296;16.452;2022-08-19T04:08:38;8.88;;;5.70;;
66353;SDS011;53150;48.296;16.452;2022-08-19T04:11:06;11.55;;;6.60;;
66353;SDS011;53150;48.296;16.452;2022-08-19T04:13:32;9.13;;;6.47;;
66353;SDS011;53150;48.296;16.452;2022-08-19T04:15:59;8.57;;;5.93;;
66353;SDS011;53150;48.296;16.452;2022-08-19T04:18:25;8.88;;;6.20;;
66353;SDS011;53150;48.296;16.452;2022-08-19T04:20:51;8.35;;;6.07;;
66353;SDS011;53150;48.296;16.452;2022-08-19T04:23:17;8.30;;;6.20;;
66353;SDS011;53150;48.296;16.452;2022-08-19T04:25:44;9.23;;;6.22;;
66353;SDS011;53150;48.296;16.452;2022-08-19T04:28:11;10.85;;;6.97;;
66353;SDS011;53150;48.296;16.452;2022-08-19T04:30:41;11.13;;;7.30;;
66353;SDS011;53150;48.296;16.452;2022-08-19T04:33:07;10.07;;;7.07;;
66353;SDS011;53150;48.296;16.452;2022-08-19T04:35:37;12.95;;;8.02;;
66353;SDS011;53150;48.296;16.452;2022-08-19T04:38:03;10.60;;;7.25;;
66353;SDS011;53150;48.296;16.452;2022-08-19T04:40:29;9.63;;;7.10;;
66353;SDS011;53150;48.296;16.452;2022-08-19T04:43:14;9.18;;;6.47;;
66353;SDS011;53150;48.296;16.452;2022-08-19T04:45:41;9.65;;;6.07;;
66353;SDS011;53150;48.296;16.452;2022-08-19T04:48:08;9.50;;;6.47;;
66353;SDS011;53150;48.296;16.452;2022-08-19T04:50:34;14.13;;;7.03;;
66353;SDS011;53150;48.296;16.452;2022-08-19T04:53:01;10.82;;;7.63;;
66353;SDS011;53150;48.296;16.452;2022-08-19T04:55:27;8.95;;;6.28;;
66353;SDS011;53150;48.296;16.452;2022-08-19T04:57:56;10.70;;;6.90;;
66353;SDS011;53150;48.296;16.452;2022-08-19T05:00:22;10.20;;;6.68;;
66353;SDS011;53150;48.296;16.452;2022-08-19T05:02:48;8.95;;;6.55;;
66353;SDS011;53150;48.296;16.452;2022-08-19T05:05:14;12.68;;;6.80;;
66353;SDS011;53150;48.296;16.452;2022-08-19T05:07:40;11.85;;;7.40;;
66353;SDS011;53150;48.296;16.452;2022-08-19T05:10:06;11.05;;;7.43;;
66353;SDS011;53150;48.296;16.452;2022-08-19T05:12:33;9.45;;;7.10;;
66353;SDS011;53150;48.296;16.452;2022-08-19T05:14:59;11.70;;;8.52;;
66353;SDS011;53150;48.296;16.452;2022-08-19T05:17:26;11.10;;;8.73;;
66353;SDS011;53150;48.296;16.452;2022-08-19T05:19:52;11.52;;;9.02;;
66353;SDS011;53150;48.296;16.452;2022-08-19T05:22:37;12.68;;;9.05;;
66353;SDS011;53150;48.296;16.452;2022-08-19T05:25:04;10.68;;;7.72;;
66353;SDS011;53150;48.296;16.452;2022-08-19T05:27:31;10.35;;;8.68;;
66353;SDS011;53150;48.296;16.452;2022-08-19T05:29:57;11.13;;;8.50;;
66353;SDS011;53150;48.296;16.452;2022-08-19T05:32:23;12.98;;;8.07;;
66353;SDS011;53150;48.296;16.452;2022-08-19T05:34:49;12.13;;;8.80;;
66353;SDS011;53150;48.296;16.452;2022-08-19T05:37:17;9.18;;;7.65;;
66353;SDS011;53150;48.296;16.452;2022-08-19T05:39:43;10.50;;;8.38;;
66353;SDS011;53150;48.296;16.452;2022-08-19T05:42:09;11.85;;;9.07;;
66353;SDS011;53150;48.296;16.452;2022-08-19T05:44:40;12.25;;;8.80;;
66353;SDS011;53150;48.296;16.452;2022-08-19T05:47:10;13.55;;;9.00;;
66353;SDS011;53150;48.296;16.452;2022-08-19T05:49:36;11.57;;;8.75;;
66353;SDS011;53150;48.296;16.452;2022-08-19T05:52:04;11.40;;;9.13;;
66353;SDS011;53150;48.296;16.452;2022-08-19T05:54:30;12.35;;;8.93;;
66353;SDS011;53150;48.296;16.452;2022-08-19T05:56:56;11.40;;;8.73;;
66353;SDS011;53150;48.296;16.452;2022-08-19T05:59:23;10.85;;;8.73;;
66353;SDS011;53150;48.296;16.452;2022-08-19T06:01:50;11.27;;;9.30;;
66353;SDS011;53150;48.296;16.452;2022-08-19T06:04:17;12.30;;;9.15;;
66353;SDS011;53150;48.296;16.452;2022-08-19T06:06:44;12.70;;;9.00;;
66353;SDS011;53150;48.296;16.452;2022-08-19T06:09:11;12.63;;;9.35;;
66353;SDS011;53150;48.296;16.452;2022-08-19T06:11:42;9.55;;;8.02;;
66353;SDS011;53150;48.296;16.452;2022-08-19T06:14:09;10.77;;;8.27;;
66353;SDS011;53150;48.296;16.452;2022-08-19T06:16:36;11.55;;;8.13;;
66353;SDS011;53150;48.296;16.452;2022-08-19T06:19:04;12.48;;;8.05;;
66353;SDS011;53150;48.296;16.452;2022-08-19T06:21:31;13.05;;;8.88;;
66353;SDS011;53150;48.296;16.452;2022-08-19T06:23:58;11.60;;;7.95;;
66353;SDS011;53150;48.296;16.452;2022-08-19T06:26:24;14.88;;;8.27;;
66353;SDS011;53150;48.296;16.452;2022-08-19T06:28:51;9.55;;;7.78;;
66353;SDS011;53150;48.296;16.452;2022-08-19T06:31:19;16.90;;;8.38;;
66353;SDS011;53150;48.296;16.452;2022-08-19T06:33:47;14.13;;;8.90;;
66353;SDS011;53150;48.296;16.452;2022-08-19T06:36:20;10.73;;;8.60;;
66353;SDS011;53150;48.296;16.452;2022-08-19T06:38:46;18.70;;;8.48;;
66353;SDS011;53150;48.296;16.452;2022-08-19T06:41:12;24.88;;;9.77;;
66353;SDS011;53150;48.296;16.452;2022-08-19T06:43:38;15.82;;;7.93;;
66353;SDS011;53150;48.296;16.452;2022-08-19T06:46:09;16.63;;;8.82;;
66353;SDS011;53150;48.296;16.452;2022-08-19T06:48:36;12.20;;;9.18;;
66353;SDS011;53150;48.296;16.452;2022-08-19T06:51:02;12.23;;;7.85;;
66353;SDS011;53150;48.296;16.452;2022-08-19T06:53:30;10.30;;;8.02;;
66353;SDS011;53150;48.296;16.452;2022-08-19T06:55:56;10.90;;;7.88;;
66353;SDS011;53150;48.296;16.452;2022-08-19T06:58:27;10.30;;;7.57;;
66353;SDS011;53150;48.296;16.452;2022-08-19T07:00:53;11.43;;;9.23;;
66353;SDS011;53150;48.296;16.452;2022-08-19T07:03:20;11.05;;;8.32;;
66353;SDS011;53150;48.296;16.452;2022-08-19T07:05:46;11.48;;;9.23;;
66353;SDS011;53150;48.296;16.452;2022-08-19T07:08:12;11.38;;;8.95;;
66353;SDS011;53150;48.296;16.452;2022-08-19T07:10:42;9.63;;;7.72;;
66353;SDS011;53150;48.296;16.452;2022-08-19T07:13:08;10.93;;;7.95;;
66353;SDS011;53150;48.296;16.452;2022-08-19T07:15:35;11.55;;;8.43;;
66353;SDS011;53150;48.296;16.452;2022-08-19T07:18:02;13.90;;;12.45;;
66353;SDS011;53150;48.296;16.452;2022-08-19T07:20:28;11.68;;;9.73;;
66353;SDS011;53150;48.296;16.452;2022-08-19T07:22:54;11.90;;;10.70;;
66353;SDS011;53150;48.296;16.452;2022-08-19T07:25:20;12.15;;;11.02;;
66353;SDS011;53150;48.296;16.452;2022-08-19T07:27:48;15.00;;;13.77;;
66353;SDS011;53150;48.296;16.452;2022-08-19T07:30:15;16.65;;;15.07;;
66353;SDS011;53150;48.296;16.452;2022-08-19T07:32:41;13.93;;;12.52;;
66353;SDS011;53150;48.296;16.452;2022-08-19T07:35:08;13.05;;;11.88;;
66353;SDS011;53150;48.296;16.452;2022-08-19T07:37:34;14.80;;;13.50;;
66353;SDS011;53150;48.296;16.452;2022-08-19T07:40:03;13.13;;;10.38;;
66353;SDS011;53150;48.296;16.452;2022-08-19T07:42:29;19.35;;;17.80;;
66353;SDS011;53150;48.296;16.452;2022-08-19T07:44:55;17.00;;;15.60;;
66353;SDS011;53150;48.296;16.452;2022-08-19T07:47:21;18.02;;;16.40;;
66353;SDS011;53150;48.296;16.452;2022-08-19T07:49:47;16.70;;;15.30;;
66353;SDS011;53150;48.296;16.452;2022-08-19T07:52:13;19.35;;;17.80;;
66353;SDS011;53150;48.296;16.452;2022-08-19T07:54:41;34.72;;;32.92;;
66353;SDS011;53150;48.296;16.452;2022-08-19T07:57:08;21.42;;;19.77;;
66353;SDS011;53150;48.296;16.452;2022-08-19T07:59:34;22.17;;;20.27;;
66353;SDS011;53150;48.296;16.452;2022-08-19T08:02:01;23.42;;;21.73;;
66353;SDS011;53150;48.296;16.452;2022-08-19T08:04:28;47.20;;;44.80;;
66353;SDS011;53150;48.296;16.452;2022-08-19T08:07:13;150.85;;;145.35;;
66353;SDS011;53150;48.296;16.452;2022-08-19T08:09:58;91.07;;;87.20;;
66353;SDS011;53150;48.296;16.452;2022-08-19T08:12:27;113.78;;;109.30;;
66353;SDS011;53150;48.296;16.452;2022-08-19T08:14:54;295.42;;;285.25;;
66353;SDS011;53150;48.296;16.452;2022-08-19T08:17:22;266.23;;;256.00;;
66353;SDS011;53150;48.296;16.452;2022-08-19T08:19:48;356.33;;;342.35;;
66353;SDS011;53150;48.296;16.452;2022-08-19T08:22:16;292.13;;;281.35;;
66353;SDS011;53150;48.296;16.452;2022-08-19T08:25:06;589.33;;;565.05;;
66353;SDS011;53150;48.296;16.452;2022-08-19T08:27:36;514.75;;;493.98;;
66353;SDS011;53150;48.296;16.452;2022-08-19T08:30:04;547.38;;;524.78;;
66353;SDS011;53150;48.296;16.452;2022-08-19T08:32:31;577.60;;;552.92;;
66353;SDS011;53150;48.296;16.452;2022-08-19T08:34:57;579.15;;;555.15;;
66353;SDS011;53150;48.296;16.452;2022-08-19T08:37:24;567.97;;;544.22;;
66353;SDS011;53150;48.296;16.452;2022-08-19T08:39:50;453.02;;;435.05;;
66353;SDS011;53150;48.296;16.452;2022-08-19T08:42:24;318.00;;;306.67;;
66353;SDS011;53150;48.296;16.452;2022-08-19T08:45:00;282.80;;;272.75;;
66353;SDS011;53150;48.296;16.452;2022-08-19T08:47:28;292.10;;;281.70;;
66353;SDS011;53150;48.296;16.452;2022-08-19T08:50:08;238.13;;;230.18;;
66353;SDS011;53150;48.296;16.452;2022-08-19T08:52:39;150.93;;;145.20;;
66353;SDS011;53150;48.296;16.452;2022-08-19T08:55:11;139.35;;;134.23;;
66353;SDS011;53150;48.296;16.452;2022-08-19T09:00:06;229.07;;;221.48;;
66353;SDS011;53150;48.296;16.452;2022-08-19T09:02:33;314.00;;;302.35;;
66353;SDS011;53150;48.296;16.452;2022-08-19T09:04:59;222.65;;;214.88;;
66353;SDS011;53150;48.296;16.452;2022-08-19T09:09:52;139.32;;;134.23;;
66353;SDS011;53150;48.296;16.452;2022-08-19T09:15:07;141.52;;;136.32;;
66353;SDS011;53150;48.296;16.452;2022-08-19T09:17:34;134.18;;;129.23;;
66353;SDS011;53150;48.296;16.452;2022-08-19T09:20:02;143.40;;;138.23;;
66353;SDS011;53150;48.296;16.452;2022-08-19T09:22:32;152.25;;;146.38;;
66353;SDS011;53150;48.296;16.452;2022-08-19T09:24:58;161.45;;;155.77;;
66353;SDS011;53150;48.296;16.452;2022-08-19T09:27:25;175.27;;;169.02;;
66353;SDS011;53150;48.296;16.452;2022-08-19T09:29:51;153.70;;;148.00;;
66353;SDS011;53150;48.296;16.452;2022-08-19T09:32:18;153.77;;;148.20;;
66353;SDS011;53150;48.296;16.452;2022-08-19T09:34:45;122.35;;;117.60;;
66353;SDS011;53150;48.296;16.452;2022-08-19T09:37:11;145.05;;;139.70;;
66353;SDS011;53150;48.296;16.452;2022-08-19T09:39:38;145.18;;;139.65;;
66353;SDS011;53150;48.296;16.452;2022-08-19T09:42:05;148.98;;;143.48;;
66353;SDS011;53150;48.296;16.452;2022-08-19T09:44:38;143.25;;;137.90;;
66353;SDS011;53150;48.296;16.452;2022-08-19T09:47:04;147.88;;;142.30;;
66353;SDS011;53150;48.296;16.452;2022-08-19T09:49:30;155.35;;;149.98;;
66353;SDS011;53150;48.296;16.452;2022-08-19T09:51:56;183.25;;;176.68;;
66353;SDS011;53150;48.296;16.452;2022-08-19T09:54:23;185.40;;;178.57;;
66353;SDS011;53150;48.296;16.452;2022-08-19T09:56:49;169.77;;;163.45;;
66353;SDS011;53150;48.296;16.452;2022-08-19T09:59:15;177.73;;;171.43;;
66353;SDS011;53150;48.296;16.452;2022-08-19T10:01:41;228.25;;;220.07;;
66353;SDS011;53150;48.296;16.452;2022-08-19T10:04:07;158.90;;;153.07;;
66353;SDS011;53150;48.296;16.452;2022-08-19T10:06:34;181.30;;;174.73;;
66353;SDS011;53150;48.296;16.452;2022-08-19T10:09:02;150.27;;;143.60;;
66353;SDS011;53150;48.296;16.452;2022-08-19T10:11:33;138.45;;;132.45;;
66353;SDS011;53150;48.296;16.452;2022-08-19T10:13:59;190.80;;;183.85;;
66353;SDS011;53150;48.296;16.452;2022-08-19T10:16:26;190.23;;;183.50;;
66353;SDS011;53150;48.296;16.452;2022-08-19T10:18:52;191.90;;;184.98;;
66353;SDS011;53150;48.296;16.452;2022-08-19T10:21:21;154.25;;;148.45;;
66353;SDS011;53150;48.296;16.452;2022-08-19T10:23:48;173.15;;;166.95;;
66353;SDS011;53150;48.296;16.452;2022-08-19T10:26:25;154.85;;;148.90;;
66353;SDS011;53150;48.296;16.452;2022-08-19T10:28:51;159.55;;;153.35;;
66353;SDS011;53150;48.296;16.452;2022-08-19T10:31:18;199.57;;;191.30;;
66353;SDS011;53150;48.296;16.452;2022-08-19T10:33:49;160.00;;;153.00;;
66353;SDS011;53150;48.296;16.452;2022-08-19T10:36:19;202.40;;;193.82;;
66353;SDS011;53150;48.296;16.452;2022-08-19T10:38:48;220.05;;;210.50;;
66353;SDS011;53150;48.296;16.452;2022-08-19T10:41:21;210.52;;;201.30;;
66353;SDS011;53150;48.296;16.452;2022-08-19T10:43:50;167.23;;;160.07;;
66353;SDS011;53150;48.296;16.452;2022-08-19T10:46:21;155.03;;;148.30;;
66353;SDS011;53150;48.296;16.452;2022-08-19T10:48:47;155.32;;;149.15;;
66353;SDS011;53150;48.296;16.452;2022-08-19T10:51:13;149.82;;;144.02;;
66353;SDS011;53150;48.296;16.452;2022-08-19T10:53:58;181.93;;;174.57;;
66353;SDS011;53150;48.296;16.452;2022-08-19T11:08:39;157.07;;;150.85;;
66353;SDS011;53150;48.296;16.452;2022-08-19T11:11:07;168.43;;;161.93;;
66353;SDS011;53150;48.296;16.452;2022-08-19T11:13:35;172.80;;;166.30;;
66353;SDS011;53150;48.296;16.452;2022-08-19T11:16:04;206.70;;;199.02;;
66353;SDS011;53150;48.296;16.452;2022-08-19T11:18:30;144.65;;;139.10;;
66353;SDS011;53150;48.296;16.452;2022-08-19T11:21:04;223.88;;;216.02;;
66353;SDS011;53150;48.296;16.452;2022-08-19T11:23:30;120.03;;;114.75;;
66353;SDS011;53150;48.296;16.452;2022-08-19T11:25:56;547.45;;;525.13;;
66353;SDS011;53150;48.296;16.452;2022-08-19T11:28:24;233.25;;;224.15;;
66353;SDS011;53150;48.296;16.452;2022-08-19T11:30:50;130.55;;;125.32;;
66353;SDS011;53150;48.296;16.452;2022-08-19T11:33:16;29.58;;;27.50;;
66353;SDS011;53150;48.296;16.452;2022-08-19T11:35:43;20.55;;;18.83;;
66353;SDS011;53150;48.296;16.452;2022-08-19T11:38:09;16.50;;;14.38;;
66353;SDS011;53150;48.296;16.452;2022-08-19T11:40:36;15.90;;;12.75;;
66353;SDS011;53150;48.296;16.452;2022-08-19T11:43:02;13.95;;;12.68;;
66353;SDS011;53150;48.296;16.452;2022-08-19T11:45:28;15.57;;;14.15;;
66353;SDS011;53150;48.296;16.452;2022-08-19T11:47:54;12.82;;;11.02;;
66353;SDS011;53150;48.296;16.452;2022-08-19T11:50:21;37.35;;;34.78;;
66353;SDS011;53150;48.296;16.452;2022-08-19T11:52:48;62.72;;;59.42;;
66353;SDS011;53150;48.296;16.452;2022-08-19T11:55:14;349.95;;;335.75;;
66353;SDS011;53150;48.296;16.452;2022-08-19T11:57:41;77.63;;;74.00;;
66353;SDS011;53150;48.296;16.452;2022-08-19T12:00:09;392.80;;;377.98;;
66353;SDS011;53150;48.296;16.452;2022-08-19T12:02:37;474.98;;;455.05;;
66353;SDS011;53150;48.296;16.452;2022-08-19T12:05:05;585.72;;;561.15;;
66353;SDS011;53150;48.296;16.452;2022-08-19T12:07:31;561.72;;;539.30;;
66353;SDS011;53150;48.296;16.452;2022-08-19T12:09:58;487.75;;;468.88;;
66353;SDS011;53150;48.296;16.452;2022-08-19T12:12:25;446.40;;;428.85;;
66353;SDS011;53150;48.296;16.452;2022-08-19T12:14:52;531.15;;;509.67;;
66353;SDS011;53150;48.296;16.452;2022-08-19T12:17:28;279.80;;;270.63;;
66353;SDS011;53150;48.296;16.452;2022-08-19T12:19:55;226.00;;;218.13;;
66353;SDS011;53150;48.296;16.452;2022-08-19T12:22:22;262.88;;;254.18;;
66353;SDS011;53150;48.296;16.452;2022-08-19T12:24:48;374.70;;;360.63;;
66353;SDS011;53150;48.296;16.452;2022-08-19T12:27:17;248.15;;;239.73;;
66353;SDS011;53150;48.296;16.452;2022-08-19T12:29:43;244.07;;;235.93;;
66353;SDS011;53150;48.296;16.452;2022-08-19T12:32:09;219.85;;;212.60;;
66353;SDS011;53150;48.296;16.452;2022-08-19T12:34:35;175.27;;;169.27;;
66353;SDS011;53150;48.296;16.452;2022-08-19T12:37:03;167.77;;;161.82;;
66353;SDS011;53150;48.296;16.452;2022-08-19T12:39:29;137.15;;;132.10;;
66353;SDS011;53150;48.296;16.452;2022-08-19T12:41:56;143.48;;;138.43;;
66353;SDS011;53150;48.296;16.452;2022-08-19T12:44:23;146.52;;;141.02;;
66353;SDS011;53150;48.296;16.452;2022-08-19T12:46:49;141.68;;;136.65;;
66353;SDS011;53150;48.296;16.452;2022-08-19T12:49:15;211.43;;;204.27;;
66353;SDS011;53150;48.296;16.452;2022-08-19T12:51:41;229.43;;;221.82;;
66353;SDS011;53150;48.296;16.452;2022-08-19T12:54:08;237.18;;;228.98;;
66353;SDS011;53150;48.296;16.452;2022-08-19T12:56:34;244.65;;;236.55;;
66353;SDS011;53150;48.296;16.452;2022-08-19T12:59:02;236.32;;;228.10;;
66353;SDS011;53150;48.296;16.452;2022-08-19T13:01:29;289.17;;;279.48;;
66353;SDS011;53150;48.296;16.452;2022-08-19T13:03:57;212.80;;;205.38;;
66353;SDS011;53150;48.296;16.452;2022-08-19T13:06:24;176.30;;;170.15;;
66353;SDS011;53150;48.296;16.452;2022-08-19T13:08:50;175.48;;;169.00;;
66353;SDS011;53150;48.296;16.452;2022-08-19T13:11:17;135.43;;;130.02;;
66353;SDS011;53150;48.296;16.452;2022-08-19T13:13:45;154.23;;;148.52;;
66353;SDS011;53150;48.296;16.452;2022-08-19T13:16:12;157.93;;;151.98;;
66353;SDS011;53150;48.296;16.452;2022-08-19T13:18:39;143.75;;;138.32;;
66353;SDS011;53150;48.296;16.452;2022-08-19T13:21:06;149.70;;;144.18;;
66353;SDS011;53150;48.296;16.452;2022-08-19T13:23:34;147.10;;;141.60;;
66353;SDS011;53150;48.296;16.452;2022-08-19T13:26:02;173.38;;;167.13;;
66353;SDS011;53150;48.296;16.452;2022-08-19T13:28:28;156.52;;;151.02;;
66353;SDS011;53150;48.296;16.452;2022-08-19T13:31:17;148.55;;;142.95;;
66353;SDS011;53150;48.296;16.452;2022-08-19T13:34:02;145.13;;;139.48;;
66353;SDS011;53150;48.296;16.452;2022-08-19T13:36:28;169.13;;;162.75;;
66353;SDS011;53150;48.296;16.452;2022-08-19T13:38:54;160.85;;;155.05;;
66353;SDS011;53150;48.296;16.452;2022-08-19T13:41:21;161.18;;;155.40;;
66353;SDS011;53150;48.296;16.452;2022-08-19T13:43:47;135.60;;;129.73;;
66353;SDS011;53150;48.296;16.452;2022-08-19T13:46:14;132.32;;;126.80;;
66353;SDS011;53150;48.296;16.452;2022-08-19T13:48:41;141.07;;;135.63;;
66353;SDS011;53150;48.296;16.452;2022-08-19T13:51:07;220.70;;;212.90;;
66353;SDS011;53150;48.296;16.452;2022-08-19T13:53:35;362.45;;;348.50;;
66353;SDS011;53150;48.296;16.452;2022-08-19T13:56:08;379.80;;;364.73;;
66353;SDS011;53150;48.296;16.452;2022-08-19T13:58:41;401.42;;;385.75;;
66353;SDS011;53150;48.296;16.452;2022-08-19T14:01:08;459.27;;;441.15;;
66353;SDS011;53150;48.296;16.452;2022-08-19T14:03:34;442.15;;;424.27;;
66353;SDS011;53150;48.296;16.452;2022-08-19T14:06:00;339.75;;;327.02;;
66353;SDS011;53150;48.296;16.452;2022-08-19T14:08:27;468.90;;;448.90;;
66353;SDS011;53150;48.296;16.452;2022-08-19T14:10:53;266.40;;;256.83;;
66353;SDS011;53150;48.296;16.452;2022-08-19T14:13:20;468.33;;;449.27;;
66353;SDS011;53150;48.296;16.452;2022-08-19T14:15:47;416.10;;;399.90;;
66353;SDS011;53150;48.296;16.452;2022-08-19T14:18:14;389.75;;;374.70;;
66353;SDS011;53150;48.296;16.452;2022-08-19T14:20:40;488.80;;;468.70;;
66353;SDS011;53150;48.296;16.452;2022-08-19T14:23:06;577.30;;;553.15;;
66353;SDS011;53150;48.296;16.452;2022-08-19T14:25:32;498.33;;;478.00;;
66353;SDS011;53150;48.296;16.452;2022-08-19T14:27:59;575.60;;;551.22;;
66353;SDS011;53150;48.296;16.452;2022-08-19T14:30:32;560.58;;;536.40;;